sensor_id;sensor_type;location;lat;lon;timestamp;P1;durP1;ratioP1;P2;durP2;ratioP2
8177;SDS011;4130;48.740;9.132;2023-04-25T00:01:37;0.47;;;0.47;;
8177;SDS011;4130;48.740;9.132;2023-04-25T00:04:04;0.83;;;0.83;;
8177;SDS011;4130;48.740;9.132;2023-04-25T00:06:31;1.13;;;0.67;;
8177;SDS011;4130;48.740;9.132;2023-04-25T00:09:02;0.70;;;0.70;;
8177;SDS011;4130;48.740;9.132;2023-04-25T00:11:32;0.53;;;0.53;;
8177;SDS011;4130;48.740;9.132;2023-04-25T00:13:59;0.47;;;0.47;;
8177;SDS011;4130;48.740;9.132;2023-04-25T00:16:27;0.60;;;0.60;;
8177;SDS011;4130;48.740;9.132;2023-04-25T00:18:53;0.60;;;0.60;;
8177;SDS011;4130;48.740;9.132;2023-04-25T00:21:20;0.50;;;0.50;;
8177;SDS011;4130;48.740;9.132;2023-04-25T00:23:49;0.80;;;0.70;;
8177;SDS011;4130;48.740;9.132;2023-04-25T00:26:17;0.90;;;0.80;;
8177;SDS011;4130;48.740;9.132;2023-04-25T00:28:46;3.73;;;1.33;;
8177;SDS011;4130;48.740;9.132;2023-04-25T00:31:12;0.70;;;0.70;;
8177;SDS011;4130;48.740;9.132;2023-04-25T00:33:39;0.83;;;0.83;;
8177;SDS011;4130;48.740;9.132;2023-04-25T00:36:06;0.70;;;0.70;;
8177;SDS011;4130;48.740;9.132;2023-04-25T00:38:34;0.80;;;0.80;;
8177;SDS011;4130;48.740;9.132;2023-04-25T00:41:00;0.57;;;0.57;;
8177;SDS011;4130;48.740;9.132;2023-04-25T00:43:29;0.80;;;0.80;;
8177;SDS011;4130;48.740;9.132;2023-04-25T00:45:59;0.43;;;0.43;;
8177;SDS011;4130;48.740;9.132;2023-04-25T00:48:26;0.60;;;0.60;;
8177;SDS011;4130;48.740;9.132;2023-04-25T00:50:53;0.37;;;0.37;;
8177;SDS011;4130;48.740;9.132;2023-04-25T00:53:21;1.33;;;0.87;;
8177;SDS011;4130;48.740;9.132;2023-04-25T00:55:49;0.70;;;0.70;;
8177;SDS011;4130;48.740;9.132;2023-04-25T00:58:16;0.90;;;0.60;;
8177;SDS011;4130;48.740;9.132;2023-04-25T01:00:45;0.63;;;0.63;;
8177;SDS011;4130;48.740;9.132;2023-04-25T01:03:12;1.00;;;0.90;;
8177;SDS011;4130;48.740;9.132;2023-04-25T01:05:41;0.97;;;0.97;;
8177;SDS011;4130;48.740;9.132;2023-04-25T01:08:08;0.70;;;0.70;;
8177;SDS011;4130;48.740;9.132;2023-04-25T01:10:36;0.80;;;0.80;;
8177;SDS011;4130;48.740;9.132;2023-04-25T01:13:03;0.70;;;0.70;;
8177;SDS011;4130;48.740;9.132;2023-04-25T01:15:30;0.87;;;0.70;;
8177;SDS011;4130;48.740;9.132;2023-04-25T01:17:58;0.87;;;0.83;;
8177;SDS011;4130;48.740;9.132;2023-04-25T01:20:25;0.70;;;0.70;;
8177;SDS011;4130;48.740;9.132;2023-04-25T01:22:54;0.90;;;0.90;;
8177;SDS011;4130;48.740;9.132;2023-04-25T01:25:22;0.53;;;0.40;;
8177;SDS011;4130;48.740;9.132;2023-04-25T01:27:49;0.80;;;0.80;;
8177;SDS011;4130;48.740;9.132;2023-04-25T01:30:16;1.07;;;0.70;;
8177;SDS011;4130;48.740;9.132;2023-04-25T01:32:43;1.57;;;1.00;;
8177;SDS011;4130;48.740;9.132;2023-04-25T01:35:11;2.93;;;0.80;;
8177;SDS011;4130;48.740;9.132;2023-04-25T01:37:38;0.73;;;0.73;;
8177;SDS011;4130;48.740;9.132;2023-04-25T01:40:07;0.83;;;0.83;;
8177;SDS011;4130;48.740;9.132;2023-04-25T01:42:36;0.93;;;0.93;;
8177;SDS011;4130;48.740;9.132;2023-04-25T01:45:05;0.97;;;0.97;;
8177;SDS011;4130;48.740;9.132;2023-04-25T01:47:33;0.67;;;0.67;;
8177;SDS011;4130;48.740;9.132;2023-04-25T01:50:00;0.60;;;0.60;;
8177;SDS011;4130;48.740;9.132;2023-04-25T01:52:28;0.57;;;0.57;;
8177;SDS011;4130;48.740;9.132;2023-04-25T01:54:55;1.00;;;1.00;;
8177;SDS011;4130;48.740;9.132;2023-04-25T01:57:24;0.80;;;0.80;;
8177;SDS011;4130;48.740;9.132;2023-04-25T01:59:51;0.67;;;0.67;;
8177;SDS011;4130;48.740;9.132;2023-04-25T02:02:19;0.73;;;0.73;;
8177;SDS011;4130;48.740;9.132;2023-04-25T02:04:46;0.70;;;0.70;;
8177;SDS011;4130;48.740;9.132;2023-04-25T02:07:13;2.13;;;0.80;;
8177;SDS011;4130;48.740;9.132;2023-04-25T02:09:40;0.80;;;0.80;;
8177;SDS011;4130;48.740;9.132;2023-04-25T02:12:08;0.80;;;0.80;;
8177;SDS011;4130;48.740;9.132;2023-04-25T02:14:37;0.60;;;0.60;;
8177;SDS011;4130;48.740;9.132;2023-04-25T02:17:03;0.60;;;0.60;;
8177;SDS011;4130;48.740;9.132;2023-04-25T02:19:30;1.00;;;0.90;;
8177;SDS011;4130;48.740;9.132;2023-04-25T02:21:57;0.80;;;0.80;;
8177;SDS011;4130;48.740;9.132;2023-04-25T02:24:24;1.00;;;0.67;;
8177;SDS011;4130;48.740;9.132;2023-04-25T02:26:52;0.50;;;0.50;;
8177;SDS011;4130;48.740;9.132;2023-04-25T02:29:20;0.70;;;0.70;;
8177;SDS011;4130;48.740;9.132;2023-04-25T02:31:48;0.80;;;0.80;;
8177;SDS011;4130;48.740;9.132;2023-04-25T02:34:15;0.70;;;0.70;;
8177;SDS011;4130;48.740;9.132;2023-04-25T02:36:42;0.67;;;0.67;;
8177;SDS011;4130;48.740;9.132;2023-04-25T02:39:09;0.37;;;0.37;;
8177;SDS011;4130;48.740;9.132;2023-04-25T02:41:36;0.90;;;0.90;;
8177;SDS011;4130;48.740;9.132;2023-04-25T02:44:02;0.67;;;0.67;;
8177;SDS011;4130;48.740;9.132;2023-04-25T02:46:29;0.80;;;0.80;;
8177;SDS011;4130;48.740;9.132;2023-04-25T02:48:57;0.70;;;0.70;;
8177;SDS011;4130;48.740;9.132;2023-04-25T02:51:24;1.00;;;0.87;;
8177;SDS011;4130;48.740;9.132;2023-04-25T02:53:51;0.53;;;0.53;;
8177;SDS011;4130;48.740;9.132;2023-04-25T02:56:18;2.13;;;0.90;;
8177;SDS011;4130;48.740;9.132;2023-04-25T02:58:45;0.83;;;0.83;;
8177;SDS011;4130;48.740;9.132;2023-04-25T03:01:11;0.40;;;0.40;;
8177;SDS011;4130;48.740;9.132;2023-04-25T03:03:38;0.80;;;0.80;;
8177;SDS011;4130;48.740;9.132;2023-04-25T03:06:06;0.50;;;0.50;;
8177;SDS011;4130;48.740;9.132;2023-04-25T03:08:33;0.60;;;0.60;;
8177;SDS011;4130;48.740;9.132;2023-04-25T03:11:00;0.60;;;0.60;;
8177;SDS011;4130;48.740;9.132;2023-04-25T03:13:27;2.50;;;0.70;;
8177;SDS011;4130;48.740;9.132;2023-04-25T03:15:55;0.50;;;0.50;;
8177;SDS011;4130;48.740;9.132;2023-04-25T03:18:21;1.90;;;0.63;;
8177;SDS011;4130;48.740;9.132;2023-04-25T03:20:48;1.23;;;0.80;;
8177;SDS011;4130;48.740;9.132;2023-04-25T03:23:16;0.97;;;0.47;;
8177;SDS011;4130;48.740;9.132;2023-04-25T03:25:43;0.53;;;0.53;;
8177;SDS011;4130;48.740;9.132;2023-04-25T03:28:10;0.67;;;0.67;;
8177;SDS011;4130;48.740;9.132;2023-04-25T03:30:36;0.80;;;0.80;;
8177;SDS011;4130;48.740;9.132;2023-04-25T03:33:03;0.50;;;0.50;;
8177;SDS011;4130;48.740;9.132;2023-04-25T03:35:30;0.67;;;0.67;;
8177;SDS011;4130;48.740;9.132;2023-04-25T03:37:56;0.67;;;0.67;;
8177;SDS011;4130;48.740;9.132;2023-04-25T03:40:24;0.47;;;0.47;;
8177;SDS011;4130;48.740;9.132;2023-04-25T03:42:51;0.80;;;0.80;;
8177;SDS011;4130;48.740;9.132;2023-04-25T03:45:18;0.70;;;0.70;;
8177;SDS011;4130;48.740;9.132;2023-04-25T03:47:45;2.20;;;0.73;;
8177;SDS011;4130;48.740;9.132;2023-04-25T03:50:11;0.63;;;0.63;;
8177;SDS011;4130;48.740;9.132;2023-04-25T03:52:38;0.50;;;0.50;;
8177;SDS011;4130;48.740;9.132;2023-04-25T03:55:05;0.70;;;0.70;;
8177;SDS011;4130;48.740;9.132;2023-04-25T03:57:34;0.90;;;0.90;;
8177;SDS011;4130;48.740;9.132;2023-04-25T04:00:00;0.70;;;0.70;;
8177;SDS011;4130;48.740;9.132;2023-04-25T04:02:29;0.77;;;0.77;;
8177;SDS011;4130;48.740;9.132;2023-04-25T04:04:56;0.90;;;0.90;;
8177;SDS011;4130;48.740;9.132;2023-04-25T04:07:22;0.70;;;0.70;;
8177;SDS011;4130;48.740;9.132;2023-04-25T04:09:49;0.80;;;0.80;;
8177;SDS011;4130;48.740;9.132;2023-04-25T04:12:16;0.70;;;0.70;;
8177;SDS011;4130;48.740;9.132;2023-04-25T04:14:44;1.07;;;0.80;;
8177;SDS011;4130;48.740;9.132;2023-04-25T04:17:11;0.67;;;0.67;;
8177;SDS011;4130;48.740;9.132;2023-04-25T04:19:38;0.70;;;0.70;;
8177;SDS011;4130;48.740;9.132;2023-04-25T04:22:04;0.97;;;0.97;;
8177;SDS011;4130;48.740;9.132;2023-04-25T04:24:31;0.80;;;0.80;;
8177;SDS011;4130;48.740;9.132;2023-04-25T04:26:58;1.17;;;1.17;;
8177;SDS011;4130;48.740;9.132;2023-04-25T04:29:25;0.67;;;0.67;;
8177;SDS011;4130;48.740;9.132;2023-04-25T04:31:53;0.70;;;0.70;;
8177;SDS011;4130;48.740;9.132;2023-04-25T04:34:20;0.50;;;0.50;;
8177;SDS011;4130;48.740;9.132;2023-04-25T04:36:49;0.70;;;0.53;;
8177;SDS011;4130;48.740;9.132;2023-04-25T04:39:16;1.07;;;0.90;;
8177;SDS011;4130;48.740;9.132;2023-04-25T04:41:42;0.70;;;0.70;;
8177;SDS011;4130;48.740;9.132;2023-04-25T04:44:10;0.60;;;0.60;;
8177;SDS011;4130;48.740;9.132;2023-04-25T04:46:37;0.60;;;0.60;;
8177;SDS011;4130;48.740;9.132;2023-04-25T04:49:08;0.60;;;0.60;;
8177;SDS011;4130;48.740;9.132;2023-04-25T04:51:35;1.10;;;1.10;;
8177;SDS011;4130;48.740;9.132;2023-04-25T04:54:02;0.60;;;0.60;;
8177;SDS011;4130;48.740;9.132;2023-04-25T04:56:29;1.03;;;0.90;;
8177;SDS011;4130;48.740;9.132;2023-04-25T04:58:56;1.20;;;0.93;;
8177;SDS011;4130;48.740;9.132;2023-04-25T05:01:23;1.20;;;1.10;;
8177;SDS011;4130;48.740;9.132;2023-04-25T05:03:51;0.50;;;0.50;;
8177;SDS011;4130;48.740;9.132;2023-04-25T05:06:19;0.70;;;0.70;;
8177;SDS011;4130;48.740;9.132;2023-04-25T05:08:45;0.77;;;0.77;;
8177;SDS011;4130;48.740;9.132;2023-04-25T05:11:12;0.80;;;0.80;;
8177;SDS011;4130;48.740;9.132;2023-04-25T05:13:39;1.00;;;1.00;;
8177;SDS011;4130;48.740;9.132;2023-04-25T05:16:06;0.80;;;0.80;;
8177;SDS011;4130;48.740;9.132;2023-04-25T05:18:32;1.67;;;1.30;;
8177;SDS011;4130;48.740;9.132;2023-04-25T05:20:59;0.70;;;0.70;;
8177;SDS011;4130;48.740;9.132;2023-04-25T05:23:27;1.17;;;0.90;;
8177;SDS011;4130;48.740;9.132;2023-04-25T05:25:55;1.03;;;1.03;;
8177;SDS011;4130;48.740;9.132;2023-04-25T05:28:22;3.20;;;1.30;;
8177;SDS011;4130;48.740;9.132;2023-04-25T05:30:49;1.30;;;1.20;;
8177;SDS011;4130;48.740;9.132;2023-04-25T05:33:16;1.33;;;1.23;;
8177;SDS011;4130;48.740;9.132;2023-04-25T05:35:42;1.20;;;1.10;;
8177;SDS011;4130;48.740;9.132;2023-04-25T05:38:09;1.40;;;1.30;;
8177;SDS011;4130;48.740;9.132;2023-04-25T05:40:37;1.60;;;1.43;;
8177;SDS011;4130;48.740;9.132;2023-04-25T05:43:04;1.63;;;1.53;;
8177;SDS011;4130;48.740;9.132;2023-04-25T05:45:31;2.13;;;1.30;;
8177;SDS011;4130;48.740;9.132;2023-04-25T05:47:58;1.43;;;0.93;;
8177;SDS011;4130;48.740;9.132;2023-04-25T05:50:24;1.80;;;1.30;;
8177;SDS011;4130;48.740;9.132;2023-04-25T05:52:51;0.97;;;0.97;;
8177;SDS011;4130;48.740;9.132;2023-04-25T05:55:18;1.60;;;1.50;;
8177;SDS011;4130;48.740;9.132;2023-04-25T05:57:46;1.30;;;1.10;;
8177;SDS011;4130;48.740;9.132;2023-04-25T06:00:13;1.17;;;1.17;;
8177;SDS011;4130;48.740;9.132;2023-04-25T06:02:41;1.50;;;1.00;;
8177;SDS011;4130;48.740;9.132;2023-04-25T06:05:08;4.77;;;1.20;;
8177;SDS011;4130;48.740;9.132;2023-04-25T06:07:35;1.20;;;1.20;;
8177;SDS011;4130;48.740;9.132;2023-04-25T06:10:02;1.73;;;0.90;;
8177;SDS011;4130;48.740;9.132;2023-04-25T06:12:31;0.90;;;0.90;;
8177;SDS011;4130;48.740;9.132;2023-04-25T06:15:00;1.00;;;1.00;;
8177;SDS011;4130;48.740;9.132;2023-04-25T06:17:26;1.20;;;1.20;;
8177;SDS011;4130;48.740;9.132;2023-04-25T06:19:53;1.03;;;1.03;;
8177;SDS011;4130;48.740;9.132;2023-04-25T06:22:20;1.10;;;1.03;;
8177;SDS011;4130;48.740;9.132;2023-04-25T06:24:46;1.00;;;1.00;;
8177;SDS011;4130;48.740;9.132;2023-04-25T06:27:13;0.80;;;0.80;;
8177;SDS011;4130;48.740;9.132;2023-04-25T06:29:40;1.10;;;1.10;;
8177;SDS011;4130;48.740;9.132;2023-04-25T06:32:08;0.97;;;0.97;;
8177;SDS011;4130;48.740;9.132;2023-04-25T06:34:35;1.10;;;1.03;;
8177;SDS011;4130;48.740;9.132;2023-04-25T06:37:02;1.20;;;1.20;;
8177;SDS011;4130;48.740;9.132;2023-04-25T06:39:28;1.50;;;1.40;;
8177;SDS011;4130;48.740;9.132;2023-04-25T06:41:55;1.27;;;1.00;;
8177;SDS011;4130;48.740;9.132;2023-04-25T06:44:22;8.77;;;1.23;;
8177;SDS011;4130;48.740;9.132;2023-04-25T06:46:51;1.10;;;1.00;;
8177;SDS011;4130;48.740;9.132;2023-04-25T06:49:19;1.03;;;1.03;;
8177;SDS011;4130;48.740;9.132;2023-04-25T06:51:46;0.97;;;0.97;;
8177;SDS011;4130;48.740;9.132;2023-04-25T06:54:13;1.47;;;1.27;;
8177;SDS011;4130;48.740;9.132;2023-04-25T06:56:39;2.10;;;1.63;;
8177;SDS011;4130;48.740;9.132;2023-04-25T06:59:06;0.80;;;0.80;;
8177;SDS011;4130;48.740;9.132;2023-04-25T07:01:34;1.20;;;1.20;;
8177;SDS011;4130;48.740;9.132;2023-04-25T07:04:01;1.00;;;1.00;;
8177;SDS011;4130;48.740;9.132;2023-04-25T07:06:29;1.03;;;0.90;;
8177;SDS011;4130;48.740;9.132;2023-04-25T07:08:56;1.20;;;1.10;;
8177;SDS011;4130;48.740;9.132;2023-04-25T07:11:22;1.83;;;1.00;;
8177;SDS011;4130;48.740;9.132;2023-04-25T07:13:50;1.20;;;1.10;;
8177;SDS011;4130;48.740;9.132;2023-04-25T07:16:16;1.03;;;0.93;;
8177;SDS011;4130;48.740;9.132;2023-04-25T07:18:43;2.67;;;1.00;;
8177;SDS011;4130;48.740;9.132;2023-04-25T07:21:10;1.43;;;0.90;;
8177;SDS011;4130;48.740;9.132;2023-04-25T07:23:39;0.90;;;0.90;;
8177;SDS011;4130;48.740;9.132;2023-04-25T07:26:06;1.03;;;1.03;;
8177;SDS011;4130;48.740;9.132;2023-04-25T07:28:32;3.00;;;1.13;;
8177;SDS011;4130;48.740;9.132;2023-04-25T07:30:59;1.30;;;1.20;;
8177;SDS011;4130;48.740;9.132;2023-04-25T07:33:26;0.80;;;0.80;;
8177;SDS011;4130;48.740;9.132;2023-04-25T07:35:53;1.00;;;1.00;;
8177;SDS011;4130;48.740;9.132;2023-04-25T07:38:20;1.37;;;1.30;;
8177;SDS011;4130;48.740;9.132;2023-04-25T07:40:49;1.60;;;1.30;;
8177;SDS011;4130;48.740;9.132;2023-04-25T07:43:15;0.90;;;0.90;;
8177;SDS011;4130;48.740;9.132;2023-04-25T07:45:42;1.60;;;1.40;;
8177;SDS011;4130;48.740;9.132;2023-04-25T07:48:09;1.13;;;1.10;;
8177;SDS011;4130;48.740;9.132;2023-04-25T07:50:36;0.80;;;0.80;;
8177;SDS011;4130;48.740;9.132;2023-04-25T07:53:02;1.10;;;1.10;;
8177;SDS011;4130;48.740;9.132;2023-04-25T07:55:29;1.40;;;1.30;;
8177;SDS011;4130;48.740;9.132;2023-04-25T07:57:57;1.00;;;1.00;;
8177;SDS011;4130;48.740;9.132;2023-04-25T08:00:24;0.80;;;0.80;;
8177;SDS011;4130;48.740;9.132;2023-04-25T08:02:51;1.00;;;1.00;;
8177;SDS011;4130;48.740;9.132;2023-04-25T08:05:17;0.90;;;0.90;;
8177;SDS011;4130;48.740;9.132;2023-04-25T08:07:44;0.90;;;0.90;;
8177;SDS011;4130;48.740;9.132;2023-04-25T08:10:11;1.07;;;1.00;;
8177;SDS011;4130;48.740;9.132;2023-04-25T08:12:38;1.00;;;1.00;;
8177;SDS011;4130;48.740;9.132;2023-04-25T08:15:07;1.10;;;1.00;;
8177;SDS011;4130;48.740;9.132;2023-04-25T08:17:34;1.00;;;1.00;;
8177;SDS011;4130;48.740;9.132;2023-04-25T08:20:01;0.97;;;0.87;;
8177;SDS011;4130;48.740;9.132;2023-04-25T08:22:30;1.47;;;1.37;;
8177;SDS011;4130;48.740;9.132;2023-04-25T08:24:57;1.23;;;1.13;;
8177;SDS011;4130;48.740;9.132;2023-04-25T08:27:24;0.83;;;0.83;;
8177;SDS011;4130;48.740;9.132;2023-04-25T08:29:51;0.90;;;0.90;;
8177;SDS011;4130;48.740;9.132;2023-04-25T08:32:19;1.07;;;1.07;;
8177;SDS011;4130;48.740;9.132;2023-04-25T08:34:46;1.17;;;1.10;;
8177;SDS011;4130;48.740;9.132;2023-04-25T08:37:13;1.10;;;1.10;;
8177;SDS011;4130;48.740;9.132;2023-04-25T08:39:40;1.13;;;0.97;;
8177;SDS011;4130;48.740;9.132;2023-04-25T08:42:07;1.00;;;0.90;;
8177;SDS011;4130;48.740;9.132;2023-04-25T08:44:35;1.00;;;0.90;;
8177;SDS011;4130;48.740;9.132;2023-04-25T08:47:02;0.90;;;0.90;;
8177;SDS011;4130;48.740;9.132;2023-04-25T08:49:31;1.87;;;1.40;;
8177;SDS011;4130;48.740;9.132;2023-04-25T08:51:59;1.30;;;1.20;;
8177;SDS011;4130;48.740;9.132;2023-04-25T08:54:27;2.00;;;1.40;;
8177;SDS011;4130;48.740;9.132;2023-04-25T08:56:56;1.37;;;1.27;;
8177;SDS011;4130;48.740;9.132;2023-04-25T08:59:23;1.60;;;1.23;;
8177;SDS011;4130;48.740;9.132;2023-04-25T09:01:50;1.70;;;1.60;;
8177;SDS011;4130;48.740;9.132;2023-04-25T09:04:17;6.40;;;1.60;;
8177;SDS011;4130;48.740;9.132;2023-04-25T09:06:46;1.20;;;1.20;;
8177;SDS011;4130;48.740;9.132;2023-04-25T09:09:13;1.13;;;1.03;;
8177;SDS011;4130;48.740;9.132;2023-04-25T09:11:41;1.20;;;1.10;;
8177;SDS011;4130;48.740;9.132;2023-04-25T09:14:12;1.50;;;1.27;;
8177;SDS011;4130;48.740;9.132;2023-04-25T09:16:59;0.93;;;0.93;;
8177;SDS011;4130;48.740;9.132;2023-04-25T09:19:28;1.23;;;1.13;;
8177;SDS011;4130;48.740;9.132;2023-04-25T09:21:59;1.00;;;1.00;;
8177;SDS011;4130;48.740;9.132;2023-04-25T09:24:30;1.50;;;1.40;;
8177;SDS011;4130;48.740;9.132;2023-04-25T09:26:58;0.87;;;0.87;;
8177;SDS011;4130;48.740;9.132;2023-04-25T09:29:29;0.80;;;0.80;;
8177;SDS011;4130;48.740;9.132;2023-04-25T09:32:10;1.30;;;1.00;;
8177;SDS011;4130;48.740;9.132;2023-04-25T09:34:38;0.87;;;0.87;;
8177;SDS011;4130;48.740;9.132;2023-04-25T09:37:08;1.30;;;1.20;;
8177;SDS011;4130;48.740;9.132;2023-04-25T09:39:35;0.90;;;0.90;;
8177;SDS011;4130;48.740;9.132;2023-04-25T09:42:03;0.73;;;0.73;;
8177;SDS011;4130;48.740;9.132;2023-04-25T09:44:30;0.73;;;0.73;;
8177;SDS011;4130;48.740;9.132;2023-04-25T09:46:56;2.70;;;1.10;;
8177;SDS011;4130;48.740;9.132;2023-04-25T09:49:24;0.87;;;0.83;;
8177;SDS011;4130;48.740;9.132;2023-04-25T09:51:55;0.80;;;0.80;;
8177;SDS011;4130;48.740;9.132;2023-04-25T09:54:24;0.80;;;0.80;;
8177;SDS011;4130;48.740;9.132;2023-04-25T09:56:51;0.80;;;0.80;;
8177;SDS011;4130;48.740;9.132;2023-04-25T09:59:19;0.80;;;0.80;;
8177;SDS011;4130;48.740;9.132;2023-04-25T10:01:48;0.60;;;0.60;;
8177;SDS011;4130;48.740;9.132;2023-04-25T10:04:16;0.83;;;0.80;;
8177;SDS011;4130;48.740;9.132;2023-04-25T10:06:47;0.83;;;0.77;;
8177;SDS011;4130;48.740;9.132;2023-04-25T10:09:15;0.80;;;0.80;;
8177;SDS011;4130;48.740;9.132;2023-04-25T10:11:46;0.40;;;0.40;;
8177;SDS011;4130;48.740;9.132;2023-04-25T10:14:14;0.60;;;0.60;;
8177;SDS011;4130;48.740;9.132;2023-04-25T10:16:41;0.30;;;0.30;;
8177;SDS011;4130;48.740;9.132;2023-04-25T10:19:09;0.37;;;0.37;;
8177;SDS011;4130;48.740;9.132;2023-04-25T10:21:36;0.30;;;0.30;;
8177;SDS011;4130;48.740;9.132;2023-04-25T10:24:07;0.40;;;0.40;;
8177;SDS011;4130;48.740;9.132;2023-04-25T10:26:34;0.47;;;0.40;;
8177;SDS011;4130;48.740;9.132;2023-04-25T10:29:03;0.27;;;0.27;;
8177;SDS011;4130;48.740;9.132;2023-04-25T10:31:30;0.40;;;0.30;;
8177;SDS011;4130;48.740;9.132;2023-04-25T10:33:57;0.30;;;0.30;;
8177;SDS011;4130;48.740;9.132;2023-04-25T10:36:25;0.50;;;0.30;;
8177;SDS011;4130;48.740;9.132;2023-04-25T10:38:54;0.50;;;0.50;;
8177;SDS011;4130;48.740;9.132;2023-04-25T10:41:22;0.30;;;0.30;;
8177;SDS011;4130;48.740;9.132;2023-04-25T10:43:49;0.03;;;0.03;;
8177;SDS011;4130;48.740;9.132;2023-04-25T10:46:27;0.20;;;0.20;;
8177;SDS011;4130;48.740;9.132;2023-04-25T10:48:56;0.20;;;0.20;;
8177;SDS011;4130;48.740;9.132;2023-04-25T10:51:23;0.17;;;0.17;;
8177;SDS011;4130;48.740;9.132;2023-04-25T10:53:58;0.10;;;0.10;;
8177;SDS011;4130;48.740;9.132;2023-04-25T10:56:27;0.60;;;0.60;;
8177;SDS011;4130;48.740;9.132;2023-04-25T10:59:04;0.40;;;0.40;;
8177;SDS011;4130;48.740;9.132;2023-04-25T11:01:36;0.33;;;0.33;;
8177;SDS011;4130;48.740;9.132;2023-04-25T11:04:05;0.40;;;0.40;;
8177;SDS011;4130;48.740;9.132;2023-04-25T11:06:35;0.50;;;0.50;;
8177;SDS011;4130;48.740;9.132;2023-04-25T11:09:11;0.43;;;0.43;;
8177;SDS011;4130;48.740;9.132;2023-04-25T11:11:39;0.30;;;0.30;;
8177;SDS011;4130;48.740;9.132;2023-04-25T11:14:05;0.70;;;0.70;;
8177;SDS011;4130;48.740;9.132;2023-04-25T11:16:32;0.50;;;0.50;;
8177;SDS011;4130;48.740;9.132;2023-04-25T11:19:00;0.30;;;0.30;;
8177;SDS011;4130;48.740;9.132;2023-04-25T11:21:27;0.67;;;0.57;;
8177;SDS011;4130;48.740;9.132;2023-04-25T11:23:56;0.60;;;0.60;;
8177;SDS011;4130;48.740;9.132;2023-04-25T11:26:24;0.30;;;0.30;;
8177;SDS011;4130;48.740;9.132;2023-04-25T11:28:51;0.70;;;0.60;;
8177;SDS011;4130;48.740;9.132;2023-04-25T11:31:19;0.40;;;0.40;;
8177;SDS011;4130;48.740;9.132;2023-04-25T11:33:47;0.47;;;0.47;;
8177;SDS011;4130;48.740;9.132;2023-04-25T11:36:15;0.60;;;0.60;;
8177;SDS011;4130;48.740;9.132;2023-04-25T11:38:42;0.57;;;0.57;;
8177;SDS011;4130;48.740;9.132;2023-04-25T11:41:08;0.80;;;0.80;;
8177;SDS011;4130;48.740;9.132;2023-04-25T11:43:35;0.83;;;0.80;;
8177;SDS011;4130;48.740;9.132;2023-04-25T11:46:06;0.77;;;0.77;;
8177;SDS011;4130;48.740;9.132;2023-04-25T11:48:36;0.30;;;0.30;;
8177;SDS011;4130;48.740;9.132;2023-04-25T11:51:04;0.60;;;0.60;;
8177;SDS011;4130;48.740;9.132;2023-04-25T11:53:32;0.60;;;0.60;;
8177;SDS011;4130;48.740;9.132;2023-04-25T11:56:02;0.90;;;0.90;;
8177;SDS011;4130;48.740;9.132;2023-04-25T11:58:54;6.80;;;0.83;;
8177;SDS011;4130;48.740;9.132;2023-04-25T12:01:26;0.80;;;0.77;;
8177;SDS011;4130;48.740;9.132;2023-04-25T12:03:53;0.87;;;0.87;;
8177;SDS011;4130;48.740;9.132;2023-04-25T12:06:20;1.10;;;1.00;;
8177;SDS011;4130;48.740;9.132;2023-04-25T12:09:01;0.70;;;0.70;;
8177;SDS011;4130;48.740;9.132;2023-04-25T12:11:29;1.00;;;1.00;;
8177;SDS011;4130;48.740;9.132;2023-04-25T12:14:01;0.90;;;0.90;;
8177;SDS011;4130;48.740;9.132;2023-04-25T12:16:28;0.83;;;0.83;;
8177;SDS011;4130;48.740;9.132;2023-04-25T12:18:55;0.97;;;0.97;;
8177;SDS011;4130;48.740;9.132;2023-04-25T12:21:22;0.93;;;0.93;;
8177;SDS011;4130;48.740;9.132;2023-04-25T12:23:49;1.63;;;1.30;;
8177;SDS011;4130;48.740;9.132;2023-04-25T12:26:19;2.27;;;1.17;;
8177;SDS011;4130;48.740;9.132;2023-04-25T12:28:47;3.33;;;1.37;;
8177;SDS011;4130;48.740;9.132;2023-04-25T12:31:13;1.30;;;1.20;;
8177;SDS011;4130;48.740;9.132;2023-04-25T12:33:41;1.20;;;1.10;;
8177;SDS011;4130;48.740;9.132;2023-04-25T12:36:12;1.07;;;1.03;;
8177;SDS011;4130;48.740;9.132;2023-04-25T12:38:40;1.63;;;1.53;;
8177;SDS011;4130;48.740;9.132;2023-04-25T12:41:07;1.77;;;1.67;;
8177;SDS011;4130;48.740;9.132;2023-04-25T12:43:36;1.40;;;1.30;;
8177;SDS011;4130;48.740;9.132;2023-04-25T12:46:03;1.60;;;1.50;;
8177;SDS011;4130;48.740;9.132;2023-04-25T12:48:29;2.77;;;1.67;;
8177;SDS011;4130;48.740;9.132;2023-04-25T12:50:56;1.37;;;1.27;;
8177;SDS011;4130;48.740;9.132;2023-04-25T12:53:23;1.80;;;1.47;;
8177;SDS011;4130;48.740;9.132;2023-04-25T12:55:50;1.43;;;1.37;;
8177;SDS011;4130;48.740;9.132;2023-04-25T12:58:17;1.53;;;1.43;;
8177;SDS011;4130;48.740;9.132;2023-04-25T13:00:46;1.70;;;1.60;;
8177;SDS011;4130;48.740;9.132;2023-04-25T13:03:13;1.70;;;1.60;;
8177;SDS011;4130;48.740;9.132;2023-04-25T13:05:40;1.50;;;1.40;;
8177;SDS011;4130;48.740;9.132;2023-04-25T13:08:08;2.30;;;1.90;;
8177;SDS011;4130;48.740;9.132;2023-04-25T13:13:03;6.97;;;1.87;;
8177;SDS011;4130;48.740;9.132;2023-04-25T13:15:30;1.70;;;1.60;;
8177;SDS011;4130;48.740;9.132;2023-04-25T13:17:58;1.73;;;1.60;;
8177;SDS011;4130;48.740;9.132;2023-04-25T13:20:25;3.57;;;1.53;;
8177;SDS011;4130;48.740;9.132;2023-04-25T13:22:52;1.80;;;1.70;;
8177;SDS011;4130;48.740;9.132;2023-04-25T13:25:19;1.70;;;1.60;;
8177;SDS011;4130;48.740;9.132;2023-04-25T13:27:46;2.03;;;1.60;;
8177;SDS011;4130;48.740;9.132;2023-04-25T13:30:13;1.23;;;1.13;;
8177;SDS011;4130;48.740;9.132;2023-04-25T13:32:40;1.60;;;1.50;;
8177;SDS011;4130;48.740;9.132;2023-04-25T13:35:10;1.90;;;1.80;;
8177;SDS011;4130;48.740;9.132;2023-04-25T13:37:38;1.70;;;1.60;;
8177;SDS011;4130;48.740;9.132;2023-04-25T13:40:06;2.60;;;1.70;;
8177;SDS011;4130;48.740;9.132;2023-04-25T13:42:35;1.73;;;1.63;;
8177;SDS011;4130;48.740;9.132;2023-04-25T13:45:01;2.03;;;1.83;;
8177;SDS011;4130;48.740;9.132;2023-04-25T13:47:29;2.10;;;2.00;;
8177;SDS011;4130;48.740;9.132;2023-04-25T13:49:56;3.60;;;2.00;;
8177;SDS011;4130;48.740;9.132;2023-04-25T13:52:24;2.43;;;2.10;;
8177;SDS011;4130;48.740;9.132;2023-04-25T13:54:51;2.60;;;2.23;;
8177;SDS011;4130;48.740;9.132;2023-04-25T13:57:17;2.20;;;2.00;;
8177;SDS011;4130;48.740;9.132;2023-04-25T13:59:45;3.37;;;1.93;;
8177;SDS011;4130;48.740;9.132;2023-04-25T14:02:12;2.53;;;2.33;;
8177;SDS011;4130;48.740;9.132;2023-04-25T14:04:39;2.13;;;1.90;;
8177;SDS011;4130;48.740;9.132;2023-04-25T14:07:06;1.80;;;1.70;;
8177;SDS011;4130;48.740;9.132;2023-04-25T14:09:34;1.77;;;1.67;;
8177;SDS011;4130;48.740;9.132;2023-04-25T14:12:01;1.70;;;1.60;;
8177;SDS011;4130;48.740;9.132;2023-04-25T14:14:28;2.43;;;2.20;;
8177;SDS011;4130;48.740;9.132;2023-04-25T14:16:55;2.43;;;2.30;;
8177;SDS011;4130;48.740;9.132;2023-04-25T14:19:22;2.10;;;2.00;;
8177;SDS011;4130;48.740;9.132;2023-04-25T14:21:49;2.30;;;2.00;;
8177;SDS011;4130;48.740;9.132;2023-04-25T14:24:16;2.50;;;1.90;;
8177;SDS011;4130;48.740;9.132;2023-04-25T14:26:44;4.13;;;2.17;;
8177;SDS011;4130;48.740;9.132;2023-04-25T14:29:11;2.10;;;1.80;;
8177;SDS011;4130;48.740;9.132;2023-04-25T14:31:38;2.80;;;2.03;;
8177;SDS011;4130;48.740;9.132;2023-04-25T14:34:06;2.37;;;2.00;;
8177;SDS011;4130;48.740;9.132;2023-04-25T14:36:32;1.67;;;1.57;;
8177;SDS011;4130;48.740;9.132;2023-04-25T14:38:59;2.77;;;2.23;;
8177;SDS011;4130;48.740;9.132;2023-04-25T14:41:26;1.60;;;1.50;;
8177;SDS011;4130;48.740;9.132;2023-04-25T14:43:54;1.23;;;1.13;;
8177;SDS011;4130;48.740;9.132;2023-04-25T14:46:22;1.30;;;1.20;;
8177;SDS011;4130;48.740;9.132;2023-04-25T14:48:49;1.70;;;1.60;;
8177;SDS011;4130;48.740;9.132;2023-04-25T14:51:16;1.50;;;1.40;;
8177;SDS011;4130;48.740;9.132;2023-04-25T14:53:42;1.17;;;1.17;;
8177;SDS011;4130;48.740;9.132;2023-04-25T14:56:09;1.60;;;1.50;;
8177;SDS011;4130;48.740;9.132;2023-04-25T14:58:36;1.60;;;1.50;;
8177;SDS011;4130;48.740;9.132;2023-04-25T15:01:05;1.50;;;1.40;;
8177;SDS011;4130;48.740;9.132;2023-04-25T15:03:33;1.30;;;1.20;;
8177;SDS011;4130;48.740;9.132;2023-04-25T15:05:59;1.23;;;1.13;;
8177;SDS011;4130;48.740;9.132;2023-04-25T15:08:26;1.70;;;1.60;;
8177;SDS011;4130;48.740;9.132;2023-04-25T15:10:53;1.60;;;1.50;;
8177;SDS011;4130;48.740;9.132;2023-04-25T15:13:20;1.20;;;1.17;;
8177;SDS011;4130;48.740;9.132;2023-04-25T15:15:47;1.80;;;1.70;;
8177;SDS011;4130;48.740;9.132;2023-04-25T15:18:17;1.60;;;1.50;;
8177;SDS011;4130;48.740;9.132;2023-04-25T15:20:46;1.43;;;1.23;;